createdAt,value
2017-06-08T00:01:17.841Z,12.20
2017-06-08T00:03:46.211Z,12.20
2017-06-08T00:06:14.599Z,12.20
2017-06-08T00:08:43.062Z,12.20
2017-06-08T00:11:11.469Z,12.20
2017-06-08T00:13:39.835Z,12.20
2017-06-08T00:16:08.215Z,12.20
2017-06-08T00:18:36.690Z,12.20
2017-06-08T00:21:05.059Z,12.20
2017-06-08T00:23:33.447Z,12.20
2017-06-08T00:26:01.809Z,12.30
2017-06-08T00:28:30.204Z,12.30
2017-06-08T00:30:57.823Z,12.20
2017-06-08T00:33:26.219Z,12.30
2017-06-08T00:35:54.604Z,12.30
2017-06-08T00:38:22.983Z,12.30
2017-06-08T00:40:51.403Z,12.30
2017-06-08T00:43:19.770Z,12.40
2017-06-08T00:45:48.143Z,12.40
2017-06-08T00:48:16.641Z,12.40
2017-06-08T00:50:45.014Z,12.40
2017-06-08T00:53:13.476Z,12.40
2017-06-08T00:55:41.845Z,12.50
2017-06-08T00:58:10.263Z,12.50
2017-06-08T01:00:38.632Z,12.50
2017-06-08T01:03:07.006Z,12.50
2017-06-08T01:05:35.397Z,12.50
2017-06-08T01:08:03.768Z,12.50
2017-06-08T01:10:32.155Z,12.50
2017-06-08T01:13:00.528Z,12.50
2017-06-08T01:15:28.923Z,12.50
2017-06-08T01:17:57.312Z,12.50
2017-06-08T01:20:25.674Z,12.50
2017-06-08T01:22:54.083Z,12.50
2017-06-08T01:25:22.459Z,12.50
2017-06-08T01:27:50.855Z,12.50
2017-06-08T01:30:19.246Z,12.50
2017-06-08T01:32:47.611Z,12.50
2017-06-08T01:35:15.982Z,12.50
2017-06-08T01:37:44.382Z,12.50
2017-06-08T01:40:12.743Z,12.50
2017-06-08T01:42:40.380Z,12.50
2017-06-08T01:45:08.718Z,12.60
2017-06-08T01:47:37.140Z,12.60
2017-06-08T01:50:05.499Z,12.60
2017-06-08T01:52:33.889Z,12.60
2017-06-08T01:55:02.261Z,12.60
2017-06-08T01:57:30.648Z,12.60
2017-06-08T01:59:58.967Z,12.60
2017-06-08T02:02:27.321Z,12.60
2017-06-08T02:04:55.644Z,12.60
2017-06-08T02:07:23.988Z,12.60
2017-06-08T02:09:52.316Z,12.60
2017-06-08T02:12:20.703Z,12.60
2017-06-08T02:14:49.058Z,12.60
2017-06-08T02:17:17.471Z,12.60
2017-06-08T02:19:45.838Z,12.60
2017-06-08T02:22:14.217Z,12.60
2017-06-08T02:24:42.544Z,12.60
2017-06-08T02:27:10.914Z,12.60
2017-06-08T02:29:39.239Z,12.60
2017-06-08T02:32:07.651Z,12.70
2017-06-08T02:34:35.980Z,12.60
2017-06-08T02:37:04.299Z,12.60
2017-06-08T02:39:32.647Z,12.60
2017-06-08T02:42:00.964Z,12.60
2017-06-08T02:44:29.313Z,12.70
2017-06-08T02:46:57.628Z,12.60
2017-06-08T02:49:25.944Z,12.70
2017-06-08T02:51:54.275Z,12.70
2017-06-08T02:54:22.589Z,12.70
2017-06-08T02:56:50.952Z,12.70
2017-06-08T02:59:19.263Z,12.80
2017-06-08T03:01:47.575Z,12.80
2017-06-08T03:04:15.913Z,12.90
2017-06-08T03:06:44.226Z,12.90
2017-06-08T03:09:12.588Z,12.90
2017-06-08T03:11:40.901Z,13.00
2017-06-08T03:14:09.216Z,13.00
2017-06-08T03:16:37.548Z,12.90
2017-06-08T03:19:05.864Z,12.90
2017-06-08T03:21:34.224Z,12.90
2017-06-08T03:24:02.531Z,12.90
2017-06-08T03:26:30.845Z,12.90
2017-06-08T03:28:59.176Z,12.90
2017-06-08T03:31:27.490Z,12.80
2017-06-08T03:33:55.826Z,12.80
2017-06-08T03:36:24.131Z,12.80
2017-06-08T03:38:52.439Z,12.80
2017-06-08T03:41:20.777Z,12.90
2017-06-08T03:43:49.089Z,12.90
2017-06-08T03:46:17.452Z,12.90
2017-06-08T03:48:45.763Z,12.90
2017-06-08T03:51:14.076Z,12.90
2017-06-08T03:53:42.412Z,12.90
2017-06-08T03:56:10.724Z,12.90
2017-06-08T03:58:39.070Z,12.90
2017-06-08T04:01:07.387Z,13.00
2017-06-08T04:03:35.703Z,13.00
2017-06-08T04:06:04.035Z,13.00
2017-06-08T04:08:32.347Z,13.10
2017-06-08T04:11:00.707Z,13.20
2017-06-08T04:13:29.015Z,13.20
2017-06-08T04:15:57.328Z,13.20
2017-06-08T04:18:25.680Z,13.30
2017-06-08T04:20:53.990Z,13.30
2017-06-08T04:23:22.332Z,13.30
2017-06-08T04:25:50.646Z,13.30
2017-06-08T04:28:18.969Z,13.30
2017-06-08T04:30:47.307Z,13.40
2017-06-08T04:33:15.615Z,13.40
2017-06-08T04:35:43.956Z,13.40
2017-06-08T04:38:12.268Z,13.40
2017-06-08T04:40:40.576Z,13.60
2017-06-08T04:43:08.912Z,13.70
2017-06-08T04:45:37.224Z,13.90
2017-06-08T04:48:05.566Z,14.00
2017-06-08T04:50:33.875Z,14.10
2017-06-08T04:53:02.195Z,14.20
2017-06-08T04:55:30.563Z,14.30
2017-06-08T04:57:58.874Z,14.20
2017-06-08T05:00:27.241Z,14.30
2017-06-08T05:02:55.558Z,14.30
2017-06-08T05:05:23.876Z,14.30
2017-06-08T05:07:52.204Z,14.40
2017-06-08T05:10:20.515Z,14.40
2017-06-08T05:12:48.875Z,14.50
2017-06-08T05:15:17.181Z,14.50
2017-06-08T05:17:45.493Z,14.50
2017-06-08T05:20:13.828Z,14.50
2017-06-08T05:22:42.135Z,14.60
2017-06-08T05:25:10.503Z,14.60
2017-06-08T05:27:38.842Z,14.70
2017-06-08T05:30:07.156Z,14.70
2017-06-08T05:32:35.491Z,14.80
2017-06-08T05:35:03.795Z,14.90
2017-06-08T05:37:32.165Z,14.90
2017-06-08T05:40:00.520Z,15.00
2017-06-08T05:42:28.834Z,15.00
2017-06-08T05:44:57.190Z,15.00
2017-06-08T05:47:24.738Z,15.00
2017-06-08T05:49:53.068Z,15.10
2017-06-08T05:52:21.372Z,15.20
2017-06-08T05:54:49.727Z,15.30
2017-06-08T05:57:18.061Z,15.30
2017-06-08T05:59:46.378Z,15.40
2017-06-08T06:02:14.725Z,15.50
2017-06-08T06:04:43.056Z,15.50
2017-06-08T06:07:11.369Z,15.60
2017-06-08T06:09:39.693Z,15.60
2017-06-08T06:12:08.000Z,15.60
2017-06-08T06:14:36.360Z,15.60
2017-06-08T06:17:04.687Z,15.70
2017-06-08T06:19:33.110Z,15.80
2017-06-08T06:22:01.439Z,15.70
2017-06-08T06:24:29.772Z,15.80
2017-06-08T06:26:58.108Z,16.00
2017-06-08T06:29:25.651Z,15.90
2017-06-08T06:31:53.195Z,16.10
2017-06-08T06:34:21.524Z,16.30
2017-06-08T06:36:49.836Z,16.40
2017-06-08T06:39:18.197Z,16.40
2017-06-08T06:41:46.506Z,16.50
2017-06-08T06:44:14.811Z,16.50
2017-06-08T06:46:43.160Z,16.70
2017-06-08T06:49:11.497Z,16.80
2017-06-08T06:51:39.844Z,17.00
2017-06-08T06:54:08.159Z,17.10
2017-06-08T06:56:36.464Z,17.20
2017-06-08T06:59:04.793Z,17.40
2017-06-08T07:01:33.127Z,17.50
2017-06-08T07:04:01.503Z,17.70
2017-06-08T07:06:29.815Z,17.90
2017-06-08T07:08:58.126Z,18.20
2017-06-08T07:11:25.709Z,18.10
2017-06-08T07:13:54.015Z,18.70
2017-06-08T07:16:22.384Z,18.90
2017-06-08T07:18:50.691Z,18.90
2017-06-08T07:21:18.996Z,19.10
2017-06-08T07:23:47.323Z,19.10
2017-06-08T07:26:15.648Z,19.10
2017-06-08T07:28:44.011Z,19.00
2017-06-08T07:31:12.331Z,19.10
2017-06-08T07:33:40.660Z,19.20
2017-06-08T07:36:08.996Z,19.30
2017-06-08T07:38:37.313Z,19.40
2017-06-08T07:41:05.653Z,19.40
2017-06-08T07:43:33.960Z,19.40
2017-06-08T07:46:02.269Z,19.60
2017-06-08T07:48:30.606Z,19.80
2017-06-08T07:50:58.908Z,19.90
2017-06-08T07:53:27.271Z,20.00
2017-06-08T07:55:55.580Z,20.40
2017-06-08T07:58:23.908Z,20.60
2017-06-08T08:01:04.169Z,20.50
2017-06-08T08:03:32.480Z,20.40
2017-06-08T08:06:00.808Z,20.50
2017-06-08T08:08:29.123Z,20.50
2017-06-08T08:10:57.459Z,20.60
2017-06-08T08:13:26.177Z,20.90
2017-06-08T08:15:54.518Z,21.30
2017-06-08T08:18:22.844Z,21.60
2017-06-08T08:20:51.154Z,21.50
2017-06-08T08:23:20.211Z,21.20
2017-06-08T08:25:48.552Z,21.00
2017-06-08T08:28:16.894Z,21.00
2017-06-08T08:30:45.221Z,21.00
2017-06-08T08:33:13.528Z,20.90
2017-06-08T08:35:41.865Z,20.70
2017-06-08T08:38:10.174Z,20.50
2017-06-08T08:40:38.483Z,20.50
2017-06-08T08:43:06.809Z,20.30
2017-06-08T08:45:35.128Z,20.20
2017-06-08T08:48:03.467Z,20.20
2017-06-08T08:50:31.804Z,20.30
2017-06-08T08:53:00.119Z,20.40
2017-06-08T08:55:28.456Z,20.50
2017-06-08T08:57:56.765Z,20.60
2017-06-08T09:00:25.124Z,20.80
2017-06-08T09:02:53.435Z,20.90
2017-06-08T09:05:21.741Z,20.90
2017-06-08T09:07:50.081Z,21.20
2017-06-08T09:10:18.396Z,21.60
2017-06-08T09:12:46.772Z,21.80
2017-06-08T09:15:15.087Z,22.10
2017-06-08T09:17:43.409Z,22.10
2017-06-08T09:20:11.742Z,22.00
2017-06-08T09:22:40.050Z,21.80
2017-06-08T09:25:08.420Z,21.70
2017-06-08T09:27:36.739Z,21.60
2017-06-08T09:30:05.055Z,21.50
2017-06-08T09:32:33.392Z,21.30
2017-06-08T09:35:01.696Z,21.30
2017-06-08T09:37:30.045Z,21.30
2017-06-08T09:39:58.359Z,21.40
2017-06-08T09:42:26.665Z,21.40
2017-06-08T09:44:54.997Z,21.50
2017-06-08T09:47:23.304Z,21.60
2017-06-08T09:49:51.637Z,21.70
2017-06-08T09:52:19.947Z,21.90
2017-06-08T09:54:48.260Z,22.10
2017-06-08T09:57:16.594Z,22.30
2017-06-08T09:59:44.900Z,22.30
2017-06-08T10:02:13.268Z,22.30
2017-06-08T10:04:41.581Z,22.40
2017-06-08T10:07:09.897Z,22.50
2017-06-08T10:09:38.228Z,22.60
2017-06-08T10:12:06.545Z,22.90
2017-06-08T10:14:34.893Z,22.90
2017-06-08T10:17:03.195Z,23.00
2017-06-08T10:19:31.499Z,23.20
2017-06-08T10:21:59.862Z,23.40
2017-06-08T10:24:28.173Z,23.60
2017-06-08T10:26:56.493Z,23.50
2017-06-08T10:29:24.837Z,23.60
2017-06-08T10:31:53.153Z,23.90
2017-06-08T10:34:21.483Z,24.00
2017-06-08T10:36:49.828Z,23.90
2017-06-08T10:39:18.152Z,23.80
2017-06-08T10:41:46.461Z,23.60
2017-06-08T10:44:14.790Z,23.80
2017-06-08T10:46:43.111Z,23.90
2017-06-08T10:49:11.432Z,23.80
2017-06-08T10:51:39.776Z,23.50
2017-06-08T10:54:08.099Z,23.30
2017-06-08T10:56:36.499Z,23.20
2017-06-08T10:59:04.831Z,22.90
2017-06-08T11:01:33.140Z,22.80
2017-06-08T11:04:01.493Z,23.10
2017-06-08T11:06:29.820Z,23.60
2017-06-08T11:08:58.183Z,24.20
2017-06-08T11:11:26.491Z,24.40
2017-06-08T11:13:54.795Z,24.70
2017-06-08T11:16:23.135Z,25.00
2017-06-08T11:18:51.448Z,25.00
2017-06-08T11:21:19.797Z,25.00
2017-06-08T11:23:48.109Z,25.10
2017-06-08T11:26:16.451Z,25.00
2017-06-08T11:28:44.785Z,24.90
2017-06-08T11:31:13.095Z,24.80
2017-06-08T11:33:41.424Z,24.60
2017-06-08T11:36:09.751Z,24.60
2017-06-08T11:38:38.072Z,24.90
2017-06-08T11:41:06.428Z,25.20
2017-06-08T11:43:34.741Z,25.60
2017-06-08T11:46:03.088Z,25.80
2017-06-08T11:48:31.403Z,26.10
2017-06-08T11:50:59.763Z,26.50
2017-06-08T11:53:28.097Z,26.90
2017-06-08T11:55:56.408Z,26.80
2017-06-08T11:58:24.748Z,26.50
2017-06-08T12:00:53.054Z,26.10
2017-06-08T12:03:21.366Z,25.80
2017-06-08T12:05:49.713Z,25.90
2017-06-08T12:08:18.019Z,26.10
2017-06-08T12:10:46.381Z,26.40
2017-06-08T12:13:14.688Z,26.30
2017-06-08T12:15:42.996Z,26.20
2017-06-08T12:18:11.339Z,26.30
2017-06-08T12:20:39.654Z,26.50
2017-06-08T12:23:08.029Z,26.70
2017-06-08T12:25:36.334Z,26.80
2017-06-08T12:28:04.643Z,26.90
2017-06-08T12:30:32.976Z,26.80
2017-06-08T12:33:00.828Z,26.80
2017-06-08T12:35:29.462Z,26.90
2017-06-08T12:37:57.778Z,26.80
2017-06-08T12:40:26.088Z,27.00
2017-06-08T12:42:54.430Z,27.10
2017-06-08T12:45:22.739Z,27.30
2017-06-08T12:47:51.085Z,27.40
2017-06-08T12:50:19.405Z,27.20
2017-06-08T12:52:47.735Z,27.30
2017-06-08T12:55:16.086Z,27.40
2017-06-08T12:57:44.422Z,27.60
2017-06-08T13:00:12.838Z,27.60
2017-06-08T13:02:41.156Z,27.70
2017-06-08T13:05:09.471Z,27.90
2017-06-08T13:07:37.825Z,27.70
2017-06-08T13:10:06.143Z,27.60
2017-06-08T13:12:34.501Z,27.40
2017-06-08T13:15:02.840Z,27.30
2017-06-08T13:17:31.202Z,27.40
2017-06-08T13:19:59.546Z,27.30
2017-06-08T13:22:27.857Z,27.50
2017-06-08T13:24:56.196Z,27.70
2017-06-08T13:27:23.741Z,27.60
2017-06-08T13:29:52.044Z,27.50
2017-06-08T13:32:20.373Z,27.40
2017-06-08T13:34:48.679Z,27.00
2017-06-08T13:37:17.039Z,26.80
2017-06-08T13:39:45.346Z,26.70
2017-06-08T13:42:13.653Z,26.70
2017-06-08T13:44:41.984Z,26.50
2017-06-08T13:47:10.295Z,26.20
2017-06-08T13:49:38.649Z,26.30
2017-06-08T13:52:06.960Z,26.70
2017-06-08T13:54:36.336Z,26.90
2017-06-08T13:57:04.705Z,27.10
2017-06-08T13:59:33.016Z,27.50
2017-06-08T14:02:01.375Z,27.80
2017-06-08T14:04:29.725Z,27.90
2017-06-08T14:06:58.123Z,27.80
2017-06-08T14:09:26.489Z,27.70
2017-06-08T14:11:54.803Z,27.30
2017-06-08T14:14:23.186Z,27.20
2017-06-08T14:16:51.786Z,27.30
2017-06-08T14:19:20.092Z,27.50
2017-06-08T14:21:48.421Z,27.40
2017-06-08T14:24:16.733Z,27.80
2017-06-08T14:26:45.095Z,28.10
2017-06-08T14:29:13.402Z,28.00
2017-06-08T14:31:41.815Z,28.00
2017-06-08T14:34:10.169Z,27.70
2017-06-08T14:36:38.501Z,27.40
2017-06-08T14:39:06.128Z,27.40
2017-06-08T14:41:34.444Z,27.50
2017-06-08T14:44:02.762Z,27.30
2017-06-08T14:46:31.088Z,27.20
2017-06-08T14:48:59.392Z,27.30
2017-06-08T14:51:27.756Z,27.50
2017-06-08T14:53:56.060Z,27.40
2017-06-08T14:56:24.377Z,27.50
2017-06-08T14:58:52.709Z,27.60
2017-06-08T15:01:21.025Z,27.90
2017-06-08T15:03:49.368Z,28.00
2017-06-08T15:06:17.689Z,27.80
2017-06-08T15:08:46.199Z,27.50
2017-06-08T15:11:14.569Z,27.40
2017-06-08T15:13:42.964Z,27.50
2017-06-08T15:16:11.313Z,27.60
2017-06-08T15:18:39.719Z,27.70
2017-06-08T15:21:08.027Z,27.50
2017-06-08T15:23:36.384Z,27.20
2017-06-08T15:26:04.692Z,27.00
2017-06-08T15:28:33.057Z,27.00
2017-06-08T15:31:01.369Z,26.90
2017-06-08T15:33:29.704Z,27.00
2017-06-08T15:35:58.039Z,27.20
2017-06-08T15:38:26.371Z,27.30
2017-06-08T15:40:53.976Z,27.30
2017-06-08T15:43:22.279Z,27.10
2017-06-08T15:45:50.592Z,27.30
2017-06-08T15:48:19.108Z,27.20
2017-06-08T15:50:47.426Z,27.10
2017-06-08T15:53:15.771Z,27.00
2017-06-08T15:55:44.167Z,27.00
2017-06-08T15:58:12.529Z,27.10
2017-06-08T16:00:40.848Z,27.10
2017-06-08T16:03:09.165Z,27.20
2017-06-08T16:05:38.541Z,27.20
2017-06-08T16:08:06.877Z,27.10
2017-06-08T16:10:35.207Z,27.00
2017-06-08T16:13:03.531Z,27.00
2017-06-08T16:15:31.949Z,27.00
2017-06-08T16:18:00.260Z,27.10
2017-06-08T16:20:28.568Z,27.20
2017-06-08T16:23:04.960Z,27.10
2017-06-08T16:25:33.291Z,26.80
2017-06-08T16:28:01.632Z,26.70
2017-06-08T16:30:29.943Z,26.70
2017-06-08T16:32:58.275Z,26.80
2017-06-08T16:35:26.585Z,26.90
2017-06-08T16:37:54.893Z,26.90
2017-06-08T16:40:23.221Z,26.90
2017-06-08T16:42:51.552Z,26.60
2017-06-08T16:45:19.876Z,26.40
2017-06-08T16:47:47.419Z,26.40
2017-06-08T16:50:15.757Z,26.50
2017-06-08T16:52:44.082Z,26.60
2017-06-08T16:55:12.438Z,26.90
2017-06-08T16:57:40.782Z,27.10
2017-06-08T17:00:08.381Z,27.10
2017-06-08T17:02:36.782Z,27.50
2017-06-08T17:05:05.118Z,27.70
2017-06-08T17:07:33.487Z,28.10
2017-06-08T17:10:01.878Z,28.70
2017-06-08T17:12:30.249Z,29.40
2017-06-08T17:14:58.556Z,30.10
2017-06-08T17:17:26.944Z,30.70
2017-06-08T17:19:55.325Z,31.60
2017-06-08T17:22:23.645Z,32.60
2017-06-08T17:24:52.011Z,33.40
2017-06-08T17:27:20.361Z,33.80
2017-06-08T17:29:48.728Z,33.50
2017-06-08T17:32:17.049Z,33.50
2017-06-08T17:34:45.495Z,34.00
2017-06-08T17:37:13.869Z,34.40
2017-06-08T17:39:42.288Z,34.50
2017-06-08T17:42:09.867Z,34.40
2017-06-08T17:44:38.260Z,33.90
2017-06-08T17:47:06.654Z,33.50
2017-06-08T17:49:34.970Z,33.20
2017-06-08T17:52:03.285Z,32.90
2017-06-08T17:54:31.665Z,32.60
2017-06-08T17:56:59.977Z,32.50
2017-06-08T17:59:28.316Z,32.70
2017-06-08T18:01:56.623Z,32.80
2017-06-08T18:04:25.940Z,33.00
2017-06-08T18:06:54.268Z,33.70
2017-06-08T18:09:22.587Z,34.00
2017-06-08T18:11:51.073Z,33.40
2017-06-08T18:14:20.358Z,33.00
2017-06-08T18:16:48.695Z,32.80
2017-06-08T18:19:17.008Z,32.70
2017-06-08T18:21:45.336Z,32.70
2017-06-08T18:24:13.659Z,32.50
2017-06-08T18:26:42.001Z,32.20
2017-06-08T18:29:10.337Z,31.90
2017-06-08T18:31:38.651Z,31.20
2017-06-08T18:34:06.987Z,30.20
2017-06-08T18:36:35.306Z,28.90
2017-06-08T18:39:03.647Z,27.70
2017-06-08T18:41:31.231Z,27.60
2017-06-08T18:43:59.604Z,26.00
2017-06-08T18:46:27.947Z,25.40
2017-06-08T18:48:56.288Z,25.00
2017-06-08T18:51:24.625Z,24.70
2017-06-08T18:53:52.948Z,24.40
2017-06-08T18:56:21.320Z,24.00
2017-06-08T18:58:49.643Z,23.80
2017-06-08T19:01:17.983Z,23.50
2017-06-08T19:03:46.301Z,23.30
2017-06-08T19:06:14.647Z,23.10
2017-06-08T19:08:42.224Z,23.10
2017-06-08T19:11:10.548Z,22.80
2017-06-08T19:13:38.905Z,22.70
2017-06-08T19:16:07.215Z,22.50
2017-06-08T19:18:35.558Z,22.50
2017-06-08T19:21:03.868Z,22.40
2017-06-08T19:23:32.216Z,22.20
2017-06-08T19:26:00.533Z,22.10
2017-06-08T19:28:28.840Z,22.00
2017-06-08T19:30:57.183Z,21.80
2017-06-08T19:33:25.503Z,21.60
2017-06-08T19:35:53.844Z,21.40
2017-06-08T19:38:22.160Z,21.30
2017-06-08T19:40:50.511Z,21.10
2017-06-08T19:43:18.828Z,20.90
2017-06-08T19:45:47.144Z,20.70
2017-06-08T19:48:15.477Z,20.60
2017-06-08T19:50:43.796Z,20.40
2017-06-08T19:53:12.135Z,20.30
2017-06-08T19:55:40.452Z,20.10
2017-06-08T19:58:08.875Z,20.00
2017-06-08T20:00:37.183Z,19.90
2017-06-08T20:03:05.969Z,19.70
2017-06-08T20:05:34.303Z,19.60
2017-06-08T20:08:02.620Z,19.50
2017-06-08T20:10:30.965Z,19.40
2017-06-08T20:12:59.288Z,19.30
2017-06-08T20:15:27.639Z,19.20
2017-06-08T20:17:55.995Z,19.00
2017-06-08T20:20:24.311Z,18.90
2017-06-08T20:22:51.891Z,18.90
2017-06-08T20:25:20.203Z,18.70
2017-06-08T20:27:48.539Z,18.60
2017-06-08T20:30:16.861Z,18.50
2017-06-08T20:32:45.229Z,18.40
2017-06-08T20:35:13.559Z,18.30
2017-06-08T20:37:41.899Z,18.20
2017-06-08T20:40:10.245Z,18.10
2017-06-08T20:42:38.566Z,17.90
2017-06-08T20:45:06.919Z,17.90
2017-06-08T20:47:36.233Z,17.80
2017-06-08T20:50:04.600Z,17.70
2017-06-08T20:52:32.912Z,17.60
2017-06-08T20:55:01.231Z,17.50
2017-06-08T20:57:30.603Z,17.50
2017-06-08T20:59:58.934Z,17.40
2017-06-08T21:02:27.303Z,17.30
2017-06-08T21:04:55.615Z,17.20
2017-06-08T21:07:23.953Z,17.20
2017-06-08T21:09:52.270Z,17.10
2017-06-08T21:12:20.620Z,17.10
2017-06-08T21:14:48.932Z,17.00
2017-06-08T21:17:17.254Z,17.00
2017-06-08T21:19:45.589Z,16.90
2017-06-08T21:22:13.900Z,16.90
2017-06-08T21:24:42.247Z,16.90
2017-06-08T21:27:10.588Z,16.80
2017-06-08T21:29:38.908Z,16.80
2017-06-08T21:32:07.263Z,16.80
2017-06-08T21:34:35.583Z,16.80
2017-06-08T21:37:03.958Z,16.80
2017-06-08T21:39:32.285Z,16.80
2017-06-08T21:42:00.602Z,16.80
2017-06-08T21:44:29.971Z,16.70
2017-06-08T21:46:58.284Z,16.70
2017-06-08T21:49:27.580Z,16.70
2017-06-08T21:51:55.891Z,16.60
2017-06-08T21:54:24.212Z,16.60
2017-06-08T21:56:52.553Z,16.60
2017-06-08T21:59:20.939Z,16.60
2017-06-08T22:01:49.305Z,16.60
2017-06-08T22:04:17.625Z,16.60
2017-06-08T22:06:45.943Z,16.60
2017-06-08T22:09:13.555Z,16.50
2017-06-08T22:11:41.876Z,16.50
2017-06-08T22:14:11.375Z,16.50
2017-06-08T22:16:39.703Z,16.40
2017-06-08T22:19:09.000Z,16.40
2017-06-08T22:21:37.350Z,16.40
2017-06-08T22:24:05.666Z,16.30
2017-06-08T22:26:34.049Z,16.20
2017-06-08T22:29:01.599Z,16.20
2017-06-08T22:31:29.920Z,16.10
2017-06-08T22:33:58.265Z,16.10
2017-06-08T22:36:26.581Z,16.00
2017-06-08T22:38:54.944Z,16.00
2017-06-08T22:41:23.252Z,15.90
2017-06-08T22:43:51.559Z,15.90
2017-06-08T22:46:19.889Z,15.80
2017-06-08T22:48:48.222Z,15.80
2017-06-08T22:51:16.563Z,15.70
2017-06-08T22:53:44.872Z,15.60
2017-06-08T22:56:13.177Z,15.60
2017-06-08T22:58:40.735Z,15.50
2017-06-08T23:01:09.053Z,15.60
2017-06-08T23:03:37.385Z,15.60
2017-06-08T23:06:05.696Z,15.50
2017-06-08T23:08:33.999Z,15.50
2017-06-08T23:11:02.327Z,15.50
2017-06-08T23:13:30.660Z,15.50
2017-06-08T23:15:59.016Z,15.40
2017-06-08T23:18:27.323Z,15.30
2017-06-08T23:20:55.633Z,15.30
2017-06-08T23:23:23.991Z,15.20
2017-06-08T23:25:52.296Z,15.20
2017-06-08T23:28:20.657Z,15.10
2017-06-08T23:30:48.964Z,15.10
2017-06-08T23:33:17.272Z,15.00
2017-06-08T23:35:45.604Z,14.90
2017-06-08T23:38:13.931Z,14.90
2017-06-08T23:40:42.296Z,14.80
2017-06-08T23:43:10.605Z,14.80
2017-06-08T23:45:38.914Z,14.70
2017-06-08T23:48:07.260Z,14.70
2017-06-08T23:50:35.567Z,14.70
2017-06-08T23:53:04.024Z,14.60
2017-06-08T23:55:32.333Z,14.60
2017-06-08T23:58:00.651Z,14.50
